Laguna (440) Station Data

Red Flag Warning: No
Fire Weather Zone: 258
SDGE Region: Mountain Empire
Lat/Lon: 32.845/-116.472

Observations

Time Wind Speed/Gust Temp(F) RH Fuel Moist Fuel Temp(F) Dewpt(F) Tmax(F) Tmin(F) Accum Precip 10-min Precip SL Press(mb)
2/27 11:40pm 206 11 G 23 39° 99% - - 39° 42° 37.1° - - -
2/27 11:20pm 189 10 G 20 39° 99% - - 39° 42° 37.1° - - -
2/27 11:10pm 197 8 G 16 40° 99% - - 39° 42° 37.1° - - -
2/27 11:00pm 197 12 G 23 40° 99% - - 39° 42° 37.1° - - -
2/27 10:50pm 199 6 G 16 40° 99% - - 39° 42° 37.1° - - -
2/27 10:40pm 192 10 G 17 40° 99% - - 39° 42° 37.1° - - -
2/27 10:30pm 181 9 G 15 40° 99% - - 39° 42° 37.1° - - -
2/27 10:20pm 190 9 G 15 40° 99% - - 39° 42° 37.1° - - -
2/27 10:10pm 181 12 G 19 40° 99% - - 39° 42° 37.1° - - -
2/27 10:00pm 184 10 G 17 40° 99% - - 39° 42° 37.1° - - -
2/27 9:50pm 190 10 G 16 40° 99% - - 39° 42° 37.1° - - -
2/27 9:40pm 183 10 G 18 40° 99% - - 39° 42° 37.1° - - -
2/27 9:30pm 184 12 G 20 40° 99% - - 39° 42° 37.1° - - -
2/27 9:20pm 184 11 G 17 40° 99% - - 39° 42° 37.1° - - -
2/27 9:10pm 187 11 G 19 39° 99% - - 39° 42° 37.1° - - -
2/27 9:00pm 181 13 G 21 39° 99% - - 39° 42° 37.1° - - -
2/27 8:50pm 176 12 G 21 39° 99% - - 39° 42° 37.1° - - -
2/27 8:40pm 181 11 G 18 39° 99% - - 39° 42° 37.1° - - -
2/27 8:30pm 185 11 G 19 39° 99% - - 39° 42° 37.1° - - -
2/27 8:20pm 190 11 G 25 39° 99% - - 39° 42° 37.1° - - -
2/27 8:10pm 188 12 G 22 39° 99% - - 39° 42° 37.1° - - -
2/27 8:00pm 179 12 G 20 39° 99% - - 39° 42° 37.1° - - -
2/27 7:50pm 182 13 G 23 39° 99% - - 39° 42° 37.1° - - -
2/27 7:40pm 183 13 G 23 39° 99% - - 39° 42° 37.1° - - -
2/27 7:30pm 181 11 G 17 39° 99% - - 38° 42° 37.1° - - -
2/27 7:20pm 188 10 G 17 39° 99% - - 38° 42° 37.1° - - -
2/27 7:10pm 181 11 G 18 39° 99% - - 38° 42° 37.1° - - -
2/27 7:00pm 182 8 G 17 39° 99% - - 38° 42° 37.1° - - -
2/27 6:50pm 183 9 G 18 38° 99% - - 38° 42° 37.1° - - -
2/27 6:40pm 185 10 G 16 38° 99% - - 38° 42° 37.1° - - -
2/27 6:30pm 190 9 G 18 38° 99% - - 38° 42° 37.1° - - -
2/27 6:20pm 189 8 G 13 38° 99% - - 38° 42° 37.1° - - -
2/27 6:10pm 191 11 G 19 38° 99% - - 38° 42° 37.1° - - -
2/27 6:00pm 185 11 G 18 39° 99% - - 38° 42° 37.1° - - -
2/27 5:50pm 192 11 G 18 39° 99% - - 39° 42° 37.1° - - -
2/27 5:40pm 184 11 G 19 39° 99% - - 39° 42° 37.1° - - -
2/27 5:30pm 183 13 G 22 40° 99% - - 39° 42° 37.1° - - -
2/27 5:20pm 189 10 G 18 39° 99% - - 39° 42° 37.1° - - -
2/27 5:10pm 193 10 G 18 39° 99% - - 39° 42° 37.1° - - -
2/27 5:00pm 185 10 G 19 39° 99% - - 39° 42° 37.1° - - -
2/27 4:50pm 175 11 G 16 39° 99% - - 39° 42° 37.1° - - -
2/27 4:40pm 189 10 G 16 39° 99% - - 39° 42° 37.1° - - -
2/27 4:30pm 195 9 G 19 39° 99% - - 39° 42° 37.1° - - -
2/27 4:20pm 190 12 G 23 39° 99% - - 38° 42° 37.1° - - -
2/27 4:10pm 185 12 G 20 38° 99% - - 38° 42° 37.1° - - -
2/27 4:00pm 196 10 G 21 39° 99% - - 39° 42° 37.1° - - -
2/27 3:50pm 204 6 G 13 39° 99% - - 39° 42° 37.1° - - -
2/27 3:40pm 207 7 G 15 39° 99% - - 39° 42° 37.1° - - -
2/27 3:30pm 200 7 G 15 39° 99% - - 38° 42° 37.1° - - -
2/27 3:20pm 205 9 G 17 38° 99% - - 38° 42° 37.1° - - -
2/27 3:10pm 200 9 G 15 39° 99% - - 38° 42° 37.1° - - -
2/27 3:00pm 196 12 G 22 39° 99% - - 39° 42° 37.1° - - -
2/27 2:50pm 190 11 G 23 39° 99% - - 39° 42° 37.1° - - -
2/27 2:40pm 196 13 G 23 39° 99% - - 39° 42° 37.1° - - -
2/27 2:30pm 186 13 G 32 40° 99% - - 39° 42° 37.1° - - -
2/27 2:20pm 186 13 G 24 40° 99% - - 39° 42° 37.1° - - -
2/27 2:10pm 190 15 G 27 40° 99% - - 40° 42° 37.1° - - -
2/27 2:00pm 197 12 G 25 40° 99% - - 40° 42° 37.1° - - -
2/27 1:50pm 194 13 G 26 41° 99% - - 40° 42° 37.1° - - -
2/27 1:40pm 192 13 G 24 41° 99% - - 40° 42° 37.1° - - -
2/27 1:30pm 188 12 G 22 41° 99% - - 40° 42° 37.1° - - -
2/27 1:20pm 191 12 G 20 41° 99% - - 40° 42° 37.1° - - -
2/27 1:10pm 190 13 G 28 41° 99% - - 40° 42° 37.1° - - -
2/27 1:00pm 189 14 G 28 41° 99% - - 41° 42° 37.1° - - -
2/27 12:50pm 181 15 G 23 41° 99% - - 41° 42° 37.1° - - -
2/27 12:40pm 183 14 G 23 41° 99% - - 41° 42° 37.1° - - -
2/27 12:30pm 180 16 G 23 41° 99% - - 41° 42° 37.1° - - -
2/27 12:20pm 176 17 G 27 41° 99% - - 41° 42° 37.1° - - -
2/27 12:10pm 183 15 G 26 41° 99% - - 41° 42° 37.1° - - -
2/27 12:00pm 187 13 G 21 41° 99% - - 41° 42° 37.1° - - -
2/27 11:50am 195 11 G 19 41° 99% - - 41° 42° 37.1° - - -
2/27 11:40am 189 13 G 23 42° 99% - - 41° 42° 37.1° - - -
2/27 11:30am 186 12 G 22 42° 98% - - 41° 42° 37.1° - - -
2/27 11:20am 194 11 G 19 42° 98% - - 41° 42° 37.1° - - -
2/27 11:10am 195 11 G 21 42° 98% - - 41° 42° 37.1° - - -
2/27 11:00am 193 10 G 20 42° 98% - - 41° 42° 37.1° - - -
2/27 10:50am 192 9 G 15 42° 98% - - 41° 42° 37.1° - - -
2/27 10:40am 190 10 G 16 42° 98% - - 41° 41.9° 37.1° - - -
2/27 10:30am 196 10 G 17 42° 98% - - 41° 41.9° 37.1° - - -
2/27 10:20am 190 9 G 15 42° 98% - - 41° 41.9° 37.1° - - -
2/27 10:10am 188 11 G 22 42° 98% - - 41° 41.9° 37.1° - - -
2/27 10:00am 184 12 G 24 41° 98% - - 41° 41.8° 37.1° - - -
2/27 9:50am 184 12 G 22 41° 98% - - 41° 41.8° 37.1° - - -
2/27 9:40am 184 12 G 21 41° 99% - - 41° 41.8° 37.1° - - -
2/27 9:30am 191 11 G 21 41° 99% - - 41° 41.8° 37.1° - - -
2/27 9:20am 186 15 G 25 41° 99% - - 41° 41.8° 37.1° - - -
2/27 9:10am 182 16 G 26 41° 99% - - 41° 41.8° 37.1° - - -
2/27 9:00am 191 12 G 26 41° 99% - - 41° 41.8° 37.1° - - -
2/27 8:50am 188 14 G 26 41° 99% - - 41° 41.8° 37.1° - - -
2/27 8:40am 187 13 G 20 41° 99% - - 41° 41.8° 37.1° - - -
2/27 8:30am 182 13 G 23 41° 99% - - 41° 41.8° 37.1° - - -
2/27 8:20am 174 14 G 23 41° 99% - - 41° 41.8° 37.1° - - -
2/27 8:10am 177 14 G 23 41° 99% - - 41° 41.8° 37.1° - - -
2/27 8:00am 193 8 G 17 42° 98% - - 41° 41.8° 37.1° - - -
2/27 7:50am 185 9 G 14 42° 98% - - 41° 41.8° 37.1° - - -
2/27 7:40am 188 9 G 15 42° 98% - - 41° 41.7° 37.1° - - -
2/27 7:30am 192 7 G 15 41° 99% - - 41° 41.5° 37.1° - - -
2/27 7:20am 194 7 G 16 41° 99% - - 41° 41.4° 37.1° - - -
2/27 7:10am 192 7 G 15 41° 99% - - 41° 41.4° 37.1° - - -
2/27 7:00am 189 9 G 14 41° 99% - - 41° 41.4° 37.1° - - -
2/27 6:50am 185 8 G 13 41° 99% - - 41° 41.4° 37.1° - - -
2/27 6:40am 188 9 G 14 41° 99% - - 41° 41.4° 37.1° - - -
2/27 6:30am 188 9 G 16 41° 99% - - 41° 41.4° 37.1° - - -
2/27 6:20am 188 10 G 20 41° 99% - - 41° 41.4° 37.1° - - -
2/27 6:10am 190 10 G 19 41° 99% - - 41° 41.4° 37.1° - - -
2/27 6:00am 183 11 G 18 41° 99% - - 41° 41.3° 37.1° - - -
2/27 5:50am 179 12 G 21 41° 99% - - 41° 41.3° 37.1° - - -
2/27 5:40am 185 11 G 21 41° 99% - - 41° 41.3° 37.1° - - -
2/27 5:30am 180 12 G 21 41° 99% - - 41° 41.3° 37.1° - - -
2/27 5:20am 185 10 G 17 41° 99% - - 41° 41.2° 37.1° - - -
2/27 5:10am 185 10 G 20 41° 99% - - 41° 41.2° 37.1° - - -
2/27 5:00am 182 11 G 20 41° 99% - - 41° 41.2° 37.1° - - -
2/27 4:50am 183 11 G 19 41° 99% - - 41° 41.1° 37.1° - - -
2/27 4:40am 182 10 G 20 41° 99% - - 40° 40.9° 37.1° - - -
2/27 4:30am 185 9 G 14 41° 99% - - 40° 40.8° 37.1° - - -
2/27 4:20am 173 10 G 14 41° 99% - - 40° 40.8° 37.1° - - -
2/27 4:10am 180 9 G 17 41° 99% - - 40° 40.8° 37.1° - - -
2/27 4:00am 181 8 G 16 40° 99% - - 40° 40.7° 37.1° - - -
2/27 3:50am 189 7 G 13 40° 99% - - 40° 40.7° 37.1° - - -
2/27 3:40am 190 8 G 13 41° 99% - - 40° 40.7° 37.1° - - -
2/27 3:30am 194 6 G 14 40° 99% - - 40° 40.6° 37.1° - - -
2/27 3:20am 186 5 G 9 40° 99% - - 40° 40.3° 37.1° - - -
2/27 3:10am 194 6 G 11 40° 99% - - 40° 40.2° 37.1° - - -
2/27 3:00am 189 6 G 11 40° 99% - - 40° 40° 37.1° - - -
2/27 2:50am 191 8 G 14 40° 99% - - 39° 40° 37.1° - - -
2/27 2:40am 197 8 G 13 40° 99% - - 39° 39.7° 37.1° - - -
2/27 2:30am 194 7 G 13 39° 99% - - 39° 39.6° 37.1° - - -
2/27 2:20am 190 7 G 14 39° 99% - - 39° 39.5° 37.1° - - -
2/27 2:10am 189 5 G 9 39° 99% - - 39° 39.4° 37.1° - - -
2/27 2:00am 191 6 G 10 39° 99% - - 39° 39.4° 37.1° - - -
2/27 1:50am 195 7 G 12 39° 99% - - 39° 39.4° 37.1° - - -
2/27 1:40am 202 8 G 18 39° 99% - - 39° 39.2° 37.1° - - -
2/27 1:30am 201 9 G 16 39° 99% - - 39° 39.1° 37.1° - - -
2/27 1:20am 202 10 G 20 39° 99% - - 39° 39.1° 37.1° - - -
2/27 1:10am 202 10 G 16 39° 99% - - 39° 39.1° 37.1° - - -
2/27 1:00am 202 9 G 16 39° 99% - - 38° 39.1° 37.1° - - -
2/27 12:50am 208 9 G 18 39° 99% - - 38° 38.8° 37.1° - - -
2/27 12:40am 201 9 G 16 38° 99% - - 38° 38.6° 37.1° - - -
2/27 12:30am 205 9 G 17 38° 99% - - 38° 38.4° 37.1° - - -
2/27 12:20am 195 8 G 18 38° 99% - - 37° 38° 37.1° - - -
2/27 12:10am 193 8 G 14 37° 99% - - 37° 37.7° 37.1° - - -
2/27 12:00am 190 8 G 13 37° 99% - - 37° 37.3° 31.1° - - -
2/26 11:50pm 194 8 G 15 37° 99% - - 37° 37.2° 31.1° - - -
2/26 11:40pm 191 9 G 17 36° 99% - - 36° 36.9° 31.1° - - -
2/26 11:30pm 188 7 G 13 36° 99% - - 36° 36.6° 31.1° - - -
2/26 11:20pm 200 7 G 13 36° 99% - - 36° 36.6° 31.1° - - -
2/26 11:10pm 207 5 G 10 36° 99% - - 35° 36.6° 31.1° - - -
2/26 11:00pm 199 6 G 12 36° 99% - - 35° 36.6° 31.1° - - -
2/26 10:50pm 202 6 G 12 35° 99% - - 35° 36.6° 31.1° - - -
2/26 10:40pm 218 2 G 8 34° 99% - - 34° 36.6° 31.1° - - -
2/26 10:30pm 195 2 G 6 34° 98% - - 33° 36.6° 31.1° - - -
2/26 10:20pm 222 2 G 6 33° 97% - - 32° 36.6° 31.1° - - -
2/26 10:10pm 189 3 G 9 33° 97% - - 32° 36.6° 31.1° - - -
2/26 10:00pm 177 6 G 11 32° 99% - - 32° 36.6° 31.1° - - -
2/26 9:50pm 199 8 G 13 32° 99% - - 32° 36.6° 31.1° - - -
2/26 9:40pm 198 9 G 15 33° 99% - - 33° 36.6° 31.1° - - -
2/26 9:30pm 195 10 G 17 33° 99% - - 33° 36.6° 31.1° - - -
2/26 9:20pm 195 11 G 18 32° 99% - - 32° 36.6° 31.1° - - -
2/26 9:10pm 202 9 G 18 33° 99% - - 32° 36.6° 31.1° - - -
2/26 9:00pm 202 11 G 21 33° 99% - - 33° 36.6° 31.1° - - -
2/26 8:50pm 195 11 G 22 33° 99% - - 33° 36.6° 31.1° - - -
2/26 8:40pm 198 11 G 25 33° 99% - - 33° 36.6° 31.1° - - -
2/26 8:30pm 197 11 G 19 33° 99% - - 33° 36.6° 31.1° - - -
2/26 8:20pm 202 12 G 23 33° 99% - - 33° 36.6° 31.1° - - -
2/26 8:10pm 203 9 G 18 33° 99% - - 33° 36.6° 31.1° - - -
2/26 8:00pm 212 7 G 16 33° 99% - - 33° 36.6° 31.1° - - -
2/26 7:50pm 210 7 G 19 33° 99% - - 33° 36.6° 31.1° - - -
2/26 7:40pm 204 8 G 15 33° 99% - - 32° 36.6° 31.1° - - -
2/26 7:30pm 206 10 G 19 33° 99% - - 32° 36.6° 31.1° - - -
2/26 7:20pm 199 12 G 21 33° 99% - - 33° 36.6° 31.1° - - -
2/26 7:10pm 204 10 G 17 33° 99% - - 33° 36.6° 31.1° - - -
2/26 7:00pm 211 8 G 14 33° 99% - - 33° 36.6° 31.1° - - -
2/26 6:50pm 204 12 G 22 33° 99% - - 33° 36.6° 31.1° - - -
2/26 6:40pm 208 11 G 25 33° 99% - - 33° 36.6° 31.1° - - -
2/26 6:30pm 221 7 G 18 33° 99% - - 33° 36.6° 31.1° - - -
2/26 6:20pm 227 6 G 15 33° 99% - - 33° 36.6° 31.1° - - -
2/26 6:10pm 211 10 G 19 34° 99% - - 34° 36.6° 31.1° - - -
2/26 6:00pm 232 5 G 13 34° 99% - - 34° 36.6° 31.1° - - -
2/26 5:50pm 227 9 G 17 34° 99% - - 34° 36.6° 31.1° - - -
2/26 5:40pm 212 7 G 15 34° 99% - - 34° 36.6° 31.1° - - -
2/26 5:30pm 204 11 G 24 34° 99% - - 34° 36.6° 31.1° - - -
2/26 5:20pm 205 11 G 20 34° 99% - - 34° 36.6° 31.1° - - -
2/26 5:10pm 209 10 G 18 34° 99% - - 34° 36.6° 31.1° - - -
2/26 5:00pm 208 11 G 21 35° 99% - - 34° 36.6° 31.1° - - -